createdAt,value
2019-02-24T00:01:10.186Z,12.73
2019-02-24T00:03:39.105Z,10.40
2019-02-24T00:06:07.913Z,10.63
2019-02-24T00:08:35.555Z,11.87
2019-02-24T00:11:06.304Z,11.87
2019-02-24T00:13:35.179Z,12.43
2019-02-24T00:16:02.924Z,11.60
2019-02-24T00:18:30.593Z,11.43
2019-02-24T00:20:58.397Z,12.80
2019-02-24T00:23:26.281Z,12.50
2019-02-24T00:25:54.245Z,13.13
2019-02-24T00:28:22.205Z,12.70
2019-02-24T00:30:50.103Z,12.67
2019-02-24T00:33:17.854Z,12.13
2019-02-24T00:35:48.650Z,11.93
2019-02-24T00:38:16.546Z,12.47
2019-02-24T00:40:44.705Z,12.27
2019-02-24T00:43:12.368Z,12.13
2019-02-24T00:45:40.126Z,12.07
2019-02-24T00:48:07.933Z,10.40
2019-02-24T00:50:35.489Z,11.30
2019-02-24T00:53:03.124Z,10.70
2019-02-24T00:55:30.826Z,10.20
2019-02-24T00:58:00.514Z,10.00
2019-02-24T01:00:28.480Z,10.65
2019-02-24T01:02:56.253Z,10.70
2019-02-24T01:05:23.866Z,10.53
2019-02-24T01:07:54.030Z,10.77
2019-02-24T01:14:29.247Z,9.70
2019-02-24T01:16:57.125Z,10.38
2019-02-24T01:19:24.932Z,10.20
2019-02-24T01:21:52.698Z,10.33
2019-02-24T01:24:20.435Z,10.83
2019-02-24T01:26:50.191Z,10.33
2019-02-24T01:29:17.979Z,10.73
2019-02-24T01:31:51.966Z,10.32
2019-02-24T01:34:15.333Z,9.37
2019-02-24T01:36:42.944Z,10.28
2019-02-24T01:39:15.817Z,10.78
2019-02-24T01:41:46.397Z,10.17
2019-02-24T01:44:14.222Z,9.83
2019-02-24T01:46:42.397Z,11.27
2019-02-24T01:49:10.029Z,11.13
2019-02-24T01:51:37.634Z,11.60
2019-02-24T01:54:05.292Z,10.88
2019-02-24T01:56:33.056Z,11.13
2019-02-24T01:59:00.716Z,11.93
2019-02-24T02:01:28.523Z,11.12
2019-02-24T02:03:56.164Z,11.88
2019-02-24T02:06:26.022Z,11.75
2019-02-24T02:08:53.853Z,11.40
2019-02-24T02:11:21.725Z,11.88
2019-02-24T02:13:49.465Z,13.60
2019-02-24T02:16:17.176Z,11.78
2019-02-24T02:18:44.832Z,10.80
2019-02-24T02:21:12.536Z,9.58
2019-02-24T02:23:40.492Z,9.95
2019-02-24T02:26:08.305Z,10.28
2019-02-24T02:28:43.846Z,9.43
2019-02-24T02:31:05.470Z,10.13
2019-02-24T02:33:33.080Z,10.53
2019-02-24T02:36:00.660Z,10.00
2019-02-24T02:38:28.426Z,9.40
2019-02-24T02:40:56.077Z,9.83
2019-02-24T02:43:29.383Z,9.90
2019-02-24T02:45:57.079Z,10.18
2019-02-24T02:48:24.769Z,10.03
2019-02-24T02:50:52.380Z,10.28
2019-02-24T02:53:20.028Z,9.60
2019-02-24T02:55:48.902Z,10.85
2019-02-24T02:58:16.596Z,12.30
2019-02-24T03:00:44.208Z,11.30
2019-02-24T03:03:11.790Z,12.58
2019-02-24T03:06:13.955Z,11.40
2019-02-24T03:08:44.606Z,11.55
2019-02-24T03:11:12.289Z,12.28
2019-02-24T03:13:40.207Z,11.75
2019-02-24T03:16:07.841Z,12.53
2019-02-24T03:18:35.572Z,11.85
2019-02-24T03:21:03.394Z,11.90
2019-02-24T03:23:30.996Z,11.97
2019-02-24T03:25:58.898Z,12.05
2019-02-24T03:28:26.575Z,11.83
2019-02-24T03:30:54.231Z,12.82
2019-02-24T03:33:21.870Z,12.15
2019-02-24T03:35:49.898Z,11.70
2019-02-24T03:38:17.641Z,11.15
2019-02-24T03:40:46.669Z,10.88
2019-02-24T03:43:14.447Z,10.68
2019-02-24T03:45:44.900Z,10.40
2019-02-24T03:48:13.890Z,11.50
2019-02-24T03:50:41.619Z,10.28
2019-02-24T03:53:09.436Z,11.00
2019-02-24T03:55:37.114Z,10.43
2019-02-24T03:58:04.938Z,10.65
2019-02-24T04:00:32.556Z,9.90
2019-02-24T04:03:00.189Z,8.93
2019-02-24T04:05:27.852Z,10.03
2019-02-24T04:07:58.501Z,9.65
2019-02-24T04:10:26.382Z,9.40
2019-02-24T04:12:54.057Z,8.75
2019-02-24T04:15:21.647Z,8.70
2019-02-24T04:17:49.338Z,8.50
2019-02-24T04:20:17.214Z,9.55
2019-02-24T04:22:44.823Z,9.15
2019-02-24T04:25:12.469Z,9.43
2019-02-24T04:27:40.113Z,8.38
2019-02-24T04:30:12.831Z,8.15
2019-02-24T04:32:44.188Z,9.03
2019-02-24T04:35:11.834Z,8.83
2019-02-24T04:37:42.183Z,8.60
2019-02-24T04:40:09.848Z,8.63
2019-02-24T04:42:37.454Z,8.83
2019-02-24T04:45:05.023Z,8.95
2019-02-24T04:47:32.614Z,9.35
2019-02-24T04:50:00.289Z,8.60
2019-02-24T04:52:31.405Z,8.40
2019-02-24T04:54:59.413Z,9.58
2019-02-24T04:57:27.042Z,8.93
2019-02-24T04:59:54.662Z,9.18
2019-02-24T05:02:22.303Z,9.10
2019-02-24T05:04:49.926Z,9.40
2019-02-24T05:07:17.503Z,9.85
2019-02-24T05:09:45.493Z,9.45
2019-02-24T05:12:13.099Z,9.73
2019-02-24T05:14:40.678Z,10.20
2019-02-24T05:17:08.400Z,9.88
2019-02-24T05:19:36.038Z,10.13
2019-02-24T05:22:03.763Z,10.08
2019-02-24T05:24:31.739Z,10.43
2019-02-24T05:27:01.530Z,10.35
2019-02-24T05:29:33.167Z,9.63
2019-02-24T05:32:00.783Z,9.18
2019-02-24T05:34:28.440Z,9.05
2019-02-24T05:36:56.094Z,8.43
2019-02-24T05:39:24.794Z,7.78
2019-02-24T05:41:52.388Z,8.78
2019-02-24T05:44:20.004Z,7.47
2019-02-24T05:46:47.921Z,8.10
2019-02-24T05:49:17.053Z,8.10
2019-02-24T05:51:44.649Z,7.97
2019-02-24T05:54:12.406Z,8.55
2019-02-24T05:56:40.046Z,8.80
2019-02-24T05:59:07.643Z,8.15
2019-02-24T06:01:36.457Z,8.90
2019-02-24T06:04:04.067Z,8.58
2019-02-24T06:06:31.793Z,8.68
2019-02-24T06:08:59.461Z,9.95
2019-02-24T06:11:27.094Z,10.20
2019-02-24T06:13:54.796Z,8.83
2019-02-24T06:16:52.932Z,8.90
2019-02-24T06:19:22.046Z,10.50
2019-02-24T06:21:49.725Z,9.80
2019-02-24T06:24:17.579Z,10.53
2019-02-24T06:26:45.166Z,10.53
2019-02-24T06:29:12.765Z,8.70
2019-02-24T06:31:41.504Z,8.63
2019-02-24T06:34:09.318Z,8.30
2019-02-24T06:40:30.476Z,8.10
2019-02-24T06:42:59.136Z,7.80
2019-02-24T06:45:26.996Z,7.83
2019-02-24T06:47:54.589Z,8.18
2019-02-24T06:50:24.597Z,7.90
2019-02-24T06:52:54.670Z,7.12
2019-02-24T06:55:24.819Z,8.70
2019-02-24T06:57:52.752Z,9.70
2019-02-24T07:00:20.423Z,9.30
2019-02-24T07:02:48.100Z,9.48
2019-02-24T07:05:15.990Z,9.93
2019-02-24T07:07:43.662Z,11.38
2019-02-24T07:10:19.096Z,10.30
2019-02-24T07:12:47.195Z,10.10
2019-02-24T07:15:15.023Z,10.60
2019-02-24T07:17:42.867Z,10.45
2019-02-24T07:20:19.278Z,11.18
2019-02-24T07:22:50.798Z,10.80
2019-02-24T07:25:19.839Z,11.08
2019-02-24T07:27:47.757Z,11.20
2019-02-24T07:30:23.246Z,10.45
2019-02-24T07:32:45.132Z,11.12
2019-02-24T07:35:13.101Z,11.20
2019-02-24T07:37:41.268Z,10.23
2019-02-24T07:43:59.327Z,9.80
2019-02-24T07:46:29.497Z,10.40
2019-02-24T07:48:58.320Z,9.50
2019-02-24T07:51:43.923Z,9.53
2019-02-24T07:54:14.694Z,13.57
2019-02-24T07:56:42.636Z,9.30
2019-02-24T07:59:10.260Z,9.10
2019-02-24T08:01:38.826Z,9.20
2019-02-24T08:04:17.598Z,8.60
2019-02-24T08:06:48.901Z,9.97
2019-02-24T08:09:16.535Z,9.30
2019-02-24T08:11:44.219Z,9.13
2019-02-24T08:14:29.047Z,9.80
2019-02-24T08:17:14.456Z,10.20
2019-02-24T08:19:44.810Z,9.43
2019-02-24T08:22:20.276Z,10.13
2019-02-24T08:24:49.801Z,10.23
2019-02-24T08:27:17.406Z,9.87
2019-02-24T08:30:03.207Z,9.33
2019-02-24T08:32:30.794Z,9.40
2019-02-24T08:35:03.494Z,9.80
2019-02-24T08:37:33.505Z,8.23
2019-02-24T08:40:01.156Z,9.07
2019-02-24T08:42:45.226Z,8.50
2019-02-24T08:45:15.593Z,7.40
2019-02-24T08:47:45.871Z,8.70
2019-02-24T08:50:31.615Z,8.80
2019-02-24T08:52:59.216Z,7.17
2019-02-24T08:58:32.677Z,6.90
2019-02-24T09:01:04.293Z,7.90
2019-02-24T09:03:38.573Z,7.27
2019-02-24T09:06:06.293Z,7.57
2019-02-24T09:08:35.347Z,7.23
2019-02-24T09:11:06.027Z,7.20
2019-02-24T09:13:43.363Z,6.80
2019-02-24T09:16:10.987Z,6.97
2019-02-24T09:18:39.768Z,6.90
2019-02-24T09:21:08.063Z,6.43
2019-02-24T09:23:39.867Z,6.97
2019-02-24T09:26:09.781Z,6.37
2019-02-24T09:28:43.438Z,6.73
2019-02-24T09:31:15.276Z,8.10
2019-02-24T09:33:43.048Z,7.03
2019-02-24T09:36:10.920Z,6.93
2019-02-24T09:42:54.096Z,5.87
2019-02-24T09:45:24.160Z,5.47
2019-02-24T09:48:11.257Z,5.77
2019-02-24T09:50:39.429Z,5.77
2019-02-24T09:53:31.383Z,6.40
2019-02-24T09:56:06.446Z,5.77
2019-02-24T09:58:41.425Z,5.50
2019-02-24T10:01:11.145Z,5.83
2019-02-24T10:03:39.007Z,5.87
2019-02-24T10:06:12.855Z,4.93
2019-02-24T10:08:42.293Z,5.47
2019-02-24T10:14:00.391Z,4.70
2019-02-24T10:16:41.291Z,4.57
2019-02-24T10:19:00.333Z,5.20
2019-02-24T10:21:28.923Z,5.17
2019-02-24T10:24:04.111Z,4.30
2019-02-24T10:26:43.556Z,4.03
2019-02-24T10:29:11.185Z,3.73
2019-02-24T10:32:18.724Z,3.70
2019-02-24T10:35:34.464Z,3.40
2019-02-24T10:38:11.319Z,3.97
2019-02-24T10:40:51.153Z,3.70
2019-02-24T10:43:23.368Z,4.40
2019-02-24T10:45:52.372Z,3.30
2019-02-24T10:48:24.007Z,4.60
2019-02-24T10:50:54.777Z,3.87
2019-02-24T10:53:22.487Z,4.53
2019-02-24T10:55:51.593Z,3.90
2019-02-24T11:05:00.298Z,4.20
2019-02-24T11:07:30.200Z,3.70
2019-02-24T11:10:00.471Z,4.17
2019-02-24T11:12:29.607Z,4.07
2019-02-24T11:15:01.955Z,4.33
2019-02-24T11:17:29.817Z,4.60
2019-02-24T11:21:01.253Z,4.37
2019-02-24T11:23:40.097Z,4.50
2019-02-24T11:26:10.245Z,4.07
2019-02-24T11:32:07.844Z,4.00
2019-02-24T11:34:37.197Z,3.13
2019-02-24T11:37:05.170Z,3.73
2019-02-24T11:39:33.503Z,3.17
2019-02-24T11:45:51.573Z,3.27
2019-02-24T11:48:26.774Z,3.37
2019-02-24T11:50:54.607Z,4.47
2019-02-24T11:53:24.758Z,3.90
2019-02-24T11:55:53.787Z,3.93
2019-02-24T11:58:21.706Z,3.47
2019-02-24T12:00:50.772Z,4.30
2019-02-24T12:03:18.635Z,4.03
2019-02-24T12:10:43.251Z,3.87
2019-02-24T12:13:53.988Z,4.22
2019-02-24T12:16:42.734Z,3.77
2019-02-24T12:19:18.799Z,4.03
2019-02-24T12:21:47.712Z,3.40
2019-02-24T12:24:28.798Z,3.30
2019-02-24T12:27:55.071Z,10.47
2019-02-24T12:34:12.849Z,3.07
2019-02-24T12:36:43.927Z,3.00
2019-02-24T12:39:12.627Z,3.17
2019-02-24T12:41:52.107Z,2.97
2019-02-24T12:44:26.190Z,2.80
2019-02-24T12:47:06.773Z,2.97
2019-02-24T12:49:49.456Z,3.27
2019-02-24T12:52:31.862Z,3.37
2019-02-24T12:55:12.498Z,3.47
2019-02-24T12:57:57.229Z,3.70
2019-02-24T13:00:32.249Z,3.20
2019-02-24T13:03:24.067Z,3.10
2019-02-24T13:05:48.491Z,3.20
2019-02-24T13:08:16.988Z,2.67
2019-02-24T13:10:48.766Z,2.00
2019-02-24T13:13:16.481Z,2.30
2019-02-24T13:19:43.980Z,2.30
2019-02-24T13:22:26.262Z,2.57
2019-02-24T13:32:27.176Z,2.70
2019-02-24T13:35:06.126Z,2.83
2019-02-24T13:37:37.555Z,2.60
2019-02-24T13:40:11.724Z,2.80
2019-02-24T13:42:51.528Z,2.40
2019-02-24T13:45:34.698Z,2.80
2019-02-24T13:48:02.598Z,2.67
2019-02-24T13:50:40.478Z,3.00
2019-02-24T13:54:08.567Z,3.00
2019-02-24T13:56:42.310Z,2.33
2019-02-24T13:59:16.294Z,2.53
2019-02-24T14:02:01.980Z,2.30
2019-02-24T14:04:47.620Z,2.20
2019-02-24T14:07:43.506Z,2.33
2019-02-24T14:10:42.929Z,2.27
2019-02-24T14:13:45.064Z,2.47
2019-02-24T14:16:15.941Z,3.20
2019-02-24T14:18:59.236Z,3.97
2019-02-24T14:25:24.339Z,2.93
2019-02-24T14:27:52.334Z,2.33
2019-02-24T14:30:29.158Z,2.30
2019-02-24T14:32:58.595Z,2.90
2019-02-24T14:35:41.440Z,3.03
2019-02-24T14:41:46.941Z,3.00
2019-02-24T14:44:20.178Z,2.50
2019-02-24T14:46:50.451Z,2.50
2019-02-24T14:49:19.541Z,2.37
2019-02-24T14:51:47.356Z,2.30
2019-02-24T14:54:21.327Z,2.90
2019-02-24T14:56:49.207Z,5.70
2019-02-24T14:59:19.686Z,3.17
2019-02-24T15:01:55.010Z,2.70
2019-02-24T15:04:26.587Z,3.23
2019-02-24T15:06:54.315Z,3.03
2019-02-24T15:09:26.706Z,3.80
2019-02-24T15:11:57.446Z,3.67
2019-02-24T15:14:27.358Z,3.87
2019-02-24T15:17:03.150Z,4.30
2019-02-24T15:19:33.697Z,4.20
2019-02-24T15:22:02.743Z,4.67
2019-02-24T15:24:33.237Z,3.97
2019-02-24T15:27:00.911Z,3.93
2019-02-24T15:29:31.140Z,3.43
2019-02-24T15:32:01.921Z,3.30
2019-02-24T15:34:34.040Z,4.77
2019-02-24T15:37:07.171Z,4.00
2019-02-24T15:39:36.287Z,3.17
2019-02-24T15:42:04.801Z,3.20
2019-02-24T15:44:34.078Z,2.80
2019-02-24T15:47:09.948Z,2.70
2019-02-24T15:49:39.477Z,2.70
2019-02-24T15:52:11.473Z,2.97
2019-02-24T15:54:40.459Z,3.20
2019-02-24T15:57:49.010Z,2.80
2019-02-24T16:00:24.545Z,2.92
2019-02-24T16:03:01.445Z,2.80
2019-02-24T16:05:26.533Z,3.00
2019-02-24T16:07:57.457Z,2.80
2019-02-24T16:10:36.757Z,2.97
2019-02-24T16:13:04.628Z,2.83
2019-02-24T16:15:33.738Z,3.23
2019-02-24T16:18:06.873Z,2.90
2019-02-24T16:20:57.178Z,3.30
2019-02-24T16:27:19.367Z,3.90
2019-02-24T16:29:49.212Z,3.60
2019-02-24T16:32:23.776Z,4.10
2019-02-24T16:34:56.479Z,6.93
2019-02-24T16:37:27.267Z,5.23
2019-02-24T16:40:01.562Z,3.47
2019-02-24T16:42:36.927Z,3.90
2019-02-24T16:45:07.730Z,3.77
2019-02-24T16:50:22.959Z,3.40
2019-02-24T16:53:19.418Z,3.33
2019-02-24T16:55:47.553Z,3.27
2019-02-24T16:58:34.529Z,3.20
2019-02-24T17:01:06.715Z,3.10
2019-02-24T17:03:46.162Z,4.20
2019-02-24T17:06:18.799Z,5.33
2019-02-24T17:08:51.878Z,6.30
2019-02-24T17:11:43.753Z,7.47
2019-02-24T17:14:27.365Z,15.23
2019-02-24T17:17:07.336Z,12.37
2019-02-24T17:20:08.414Z,8.67
2019-02-24T17:26:00.665Z,6.77
2019-02-24T17:28:35.194Z,4.83
2019-02-24T17:31:36.569Z,4.40
2019-02-24T17:34:44.402Z,5.03
2019-02-24T17:38:24.768Z,5.43
2019-02-24T17:41:00.207Z,5.10
2019-02-24T17:43:34.701Z,5.03
2019-02-24T17:46:07.239Z,4.53
2019-02-24T17:48:35.016Z,6.00
2019-02-24T17:51:05.551Z,5.37
2019-02-24T17:53:49.101Z,9.00
2019-02-24T17:56:17.249Z,8.57
2019-02-24T17:58:46.241Z,7.10
2019-02-24T18:01:13.977Z,5.87
2019-02-24T18:03:42.050Z,4.80
2019-02-24T18:06:09.917Z,4.57
2019-02-24T18:12:13.531Z,4.57
2019-02-24T18:14:48.677Z,4.53
2019-02-24T18:17:18.564Z,5.17
2019-02-24T18:19:47.681Z,4.97
2019-02-24T18:22:29.001Z,5.43
2019-02-24T18:25:35.802Z,5.40
2019-02-24T18:28:08.428Z,4.43
2019-02-24T18:30:39.604Z,4.67
2019-02-24T18:33:12.986Z,4.60
2019-02-24T18:35:44.990Z,4.83
2019-02-24T18:38:16.920Z,5.30
2019-02-24T18:40:46.417Z,5.57
2019-02-24T18:43:14.431Z,7.03
2019-02-24T18:45:47.324Z,6.27
2019-02-24T18:48:15.146Z,5.97
2019-02-24T18:50:43.051Z,5.87
2019-02-24T18:53:10.890Z,6.53
2019-02-24T18:55:39.908Z,6.70
2019-02-24T18:58:11.370Z,5.73
2019-02-24T19:00:39.959Z,5.70
2019-02-24T19:03:09.356Z,5.27
2019-02-24T19:05:38.122Z,6.23
2019-02-24T19:08:07.089Z,5.67
2019-02-24T19:10:36.121Z,5.37
2019-02-24T19:13:03.936Z,6.10
2019-02-24T19:15:33.271Z,5.93
2019-02-24T19:18:00.993Z,5.30
2019-02-24T19:20:49.324Z,5.10
2019-02-24T19:23:18.374Z,5.53
2019-02-24T19:25:49.702Z,4.93
2019-02-24T19:28:17.705Z,5.30
2019-02-24T19:30:48.677Z,5.43
2019-02-24T19:33:16.654Z,5.43
2019-02-24T19:35:47.475Z,6.70
2019-02-24T19:38:17.358Z,5.23
2019-02-24T19:40:52.594Z,5.80
2019-02-24T19:43:23.308Z,4.90
2019-02-24T19:45:57.608Z,5.10
2019-02-24T19:48:30.764Z,5.37
2019-02-24T19:50:58.800Z,5.23
2019-02-24T19:53:27.668Z,8.40
2019-02-24T19:55:55.608Z,6.30
2019-02-24T19:58:31.582Z,5.60
2019-02-24T20:00:59.920Z,5.03
2019-02-24T20:03:31.362Z,5.30
2019-02-24T20:06:05.711Z,5.20
2019-02-24T20:08:42.975Z,5.43
2019-02-24T20:11:23.900Z,5.40
2019-02-24T20:13:52.386Z,5.17
2019-02-24T20:16:30.928Z,5.03
2019-02-24T20:19:02.577Z,5.20
2019-02-24T20:21:51.418Z,5.40
2019-02-24T20:24:19.025Z,5.87
2019-02-24T20:26:59.182Z,5.33
2019-02-24T20:29:28.490Z,5.67
2019-02-24T20:31:57.958Z,6.10
2019-02-24T20:34:27.064Z,5.93
2019-02-24T20:36:56.873Z,6.00
2019-02-24T20:39:30.569Z,8.73
2019-02-24T20:42:18.663Z,8.90
2019-02-24T20:44:54.132Z,7.33
2019-02-24T20:47:21.945Z,6.87
2019-02-24T20:49:49.890Z,6.73
2019-02-24T20:52:18.748Z,6.70
2019-02-24T20:54:46.578Z,6.17
2019-02-24T20:57:16.795Z,6.87
2019-02-24T20:59:44.581Z,6.33
2019-02-24T21:02:26.949Z,7.73
2019-02-24T21:05:17.908Z,7.47
2019-02-24T21:07:46.247Z,6.50
2019-02-24T21:10:14.213Z,7.87
2019-02-24T21:12:51.883Z,7.13
2019-02-24T21:15:19.353Z,7.70
2019-02-24T21:17:50.828Z,7.73
2019-02-24T21:20:24.782Z,7.30
2019-02-24T21:22:52.986Z,7.73
2019-02-24T21:25:40.968Z,7.47
2019-02-24T21:32:00.331Z,6.20
2019-02-24T21:34:36.178Z,5.80
2019-02-24T21:37:04.656Z,6.10
2019-02-24T21:39:35.042Z,5.90
2019-02-24T21:42:03.154Z,6.20
2019-02-24T21:47:20.232Z,6.30
2019-02-24T21:49:50.877Z,6.07
2019-02-24T21:52:18.651Z,6.17
2019-02-24T21:54:46.507Z,6.53
2019-02-24T21:57:14.131Z,6.67
2019-02-24T21:59:44.552Z,6.07
2019-02-24T22:02:15.366Z,6.60
2019-02-24T22:04:43.034Z,6.63
2019-02-24T22:07:18.719Z,6.73
2019-02-24T22:09:46.976Z,6.37
2019-02-24T22:12:15.980Z,6.80
2019-02-24T22:14:43.594Z,6.77
2019-02-24T22:17:19.946Z,6.23
2019-02-24T22:19:48.069Z,6.23
2019-02-24T22:22:17.155Z,6.33
2019-02-24T22:24:45.418Z,5.93
2019-02-24T22:27:12.978Z,6.00
2019-02-24T22:29:40.684Z,5.73
2019-02-24T22:32:11.108Z,6.23
2019-02-24T22:34:38.766Z,6.60
2019-02-24T22:37:06.616Z,5.83
2019-02-24T22:39:34.361Z,6.20
2019-02-24T22:42:01.967Z,5.77
2019-02-24T22:44:29.608Z,5.97
2019-02-24T22:46:57.753Z,6.63
2019-02-24T22:49:25.552Z,6.07
2019-02-24T22:51:55.792Z,5.97
2019-02-24T22:54:23.837Z,5.90
2019-02-24T22:56:51.483Z,6.57
2019-02-24T22:59:19.406Z,6.97
2019-02-24T23:01:48.458Z,6.40
2019-02-24T23:04:16.070Z,5.17
2019-02-24T23:06:43.692Z,6.00
2019-02-24T23:09:13.800Z,6.73
2019-02-24T23:11:41.510Z,6.20
2019-02-24T23:14:09.124Z,6.03
2019-02-24T23:16:37.158Z,6.00
2019-02-24T23:19:04.741Z,6.23
2019-02-24T23:21:32.372Z,6.13
2019-02-24T23:24:01.487Z,5.50
2019-02-24T23:26:29.179Z,6.17
2019-02-24T23:28:56.850Z,6.17
2019-02-24T23:31:24.557Z,6.20
2019-02-24T23:33:52.221Z,6.43
2019-02-24T23:36:19.824Z,5.83
2019-02-24T23:38:47.774Z,5.57
2019-02-24T23:41:15.405Z,5.93
2019-02-24T23:43:44.618Z,6.83
2019-02-24T23:46:12.273Z,6.23
2019-02-24T23:48:40.235Z,6.50
2019-02-24T23:51:08.075Z,6.73
2019-02-24T23:53:35.741Z,6.50
2019-02-24T23:56:03.633Z,6.27
2019-02-24T23:58:31.269Z,6.73
